Time;durP1;ratioP1;P1;durP2;ratioP2;P2;SDS_P1;SDS_P2;PMS_P1;PMS_P2;Temp;Humidity;BMP_temperature;BMP_pressure;BME280_temperature;BME280_humidity;BME280_pressure;Samples;Min_cycle;Max_cycle;Signal;HPM_P1;HPM_P2
2021/06/21 08:39:25;;;;;;;10.95;3.05;;;;;;;;;;5152206;23;20104;-87
2021/06/21 08:41:50;;;;;;;8.23;2.78;;;;;;;;;;4979765;28;20377;-87
2021/06/21 08:44:16;;;;;;;10.80;2.60;;;;;;;;;;4995799;28;20552;-88
2021/06/21 08:46:42;;;;;;;8.40;2.88;;;;;;;;;;4996813;28;20676;-88
2021/06/21 08:49:09;;;;;;;12.98;3.03;;;;;;;;;;4995520;28;20037;-89
2021/06/21 08:51:36;;;;;;;11.43;2.80;;;;;;;;;;4994908;28;20030;-88
2021/06/21 08:54:04;;;;;;;9.15;2.80;;;;;;;;;;4978705;28;20483;-89
2021/06/21 08:56:30;;;;;;;17.67;3.13;;;;;;;;;;4978717;28;20026;-89
2021/06/21 08:58:55;;;;;;;11.02;3.25;;;;;;;;;;4994524;28;20019;-90
2021/06/21 09:01:21;;;;;;;11.98;3.03;;;;;;;;;;4974151;28;20096;-90
2021/06/21 09:03:47;;;;;;;11.52;2.47;;;;;;;;;;4995569;28;20038;-89
2021/06/21 09:06:21;;;;;;;10.95;2.83;;;;;;;;;;4987806;28;20033;-90
2021/06/21 09:08:58;;;;;;;14.32;2.90;;;;;;;;;;4976858;28;20031;-91
2021/06/21 09:11:46;;;;;;;9.90;3.03;;;;;;;;;;4977302;28;20053;-91
2021/06/21 09:14:29;;;;;;;12.95;2.40;;;;;;;;;;4978041;28;20022;-90
2021/06/21 09:17:08;;;;;;;9.95;2.60;;;;;;;;;;4995488;28;20049;-90
2021/06/21 09:19:57;;;;;;;8.60;2.58;;;;;;;;;;4992981;28;20062;-90
2021/06/21 09:22:40;;;;;;;7.00;2.42;;;;;;;;;;4995266;28;20124;-90
2021/06/21 09:25:29;;;;;;;10.13;2.40;;;;;;;;;;4969624;28;20108;-89
2021/06/21 09:28:03;;;;;;;6.90;2.03;;;;;;;;;;4995044;28;20033;-90
2021/06/21 09:30:30;;;;;;;10.77;2.60;;;;;;;;;;4994078;28;20069;-90
2021/06/21 09:32:58;;;;;;;10.75;2.78;;;;;;;;;;4994949;28;20026;-90
2021/06/21 09:35:29;;;;;;;11.93;3.05;;;;;;;;;;4993829;28;20038;-90
2021/06/21 09:38:01;;;;;;;10.73;2.55;;;;;;;;;;4977170;28;20026;-90
2021/06/21 09:40:42;;;;;;;11.48;2.78;;;;;;;;;;4995312;28;20026;-90
2021/06/21 09:43:31;;;;;;;8.05;2.28;;;;;;;;;;4962173;28;20559;-89
2021/06/21 09:46:18;;;;;;;14.75;3.17;;;;;;;;;;4975337;28;20034;-89
2021/06/21 09:48:45;;;;;;;11.70;2.72;;;;;;;;;;4975306;28;20035;-90
2021/06/21 09:51:22;;;;;;;14.45;2.63;;;;;;;;;;4964076;28;20030;-92
2021/06/21 09:53:56;;;;;;;9.38;2.75;;;;;;;;;;4990585;28;20030;-90
2021/06/21 09:56:56;;;;;;;13.10;2.90;;;;;;;;;;4962184;28;20165;-90
2021/06/21 09:59:47;;;;;;;13.00;3.03;;;;;;;;;;4958157;28;20031;-90
2021/06/21 10:02:26;;;;;;;14.75;3.03;;;;;;;;;;4969120;28;20062;-89
2021/06/21 10:04:51;;;;;;;11.60;2.92;;;;;;;;;;4994362;28;20036;-90
2021/06/21 10:07:37;;;;;;;13.15;3.13;;;;;;;;;;4977260;28;20073;-88
2021/06/21 10:10:08;;;;;;;10.02;3.17;;;;;;;;;;4990387;28;20105;-88
2021/06/21 10:12:34;;;;;;;9.88;3.13;;;;;;;;;;4967935;28;20019;-89
2021/06/21 10:15:02;;;;;;;7.80;3.40;;;;;;;;;;4993088;28;20034;-89
2021/06/21 10:17:27;;;;;;;16.02;3.83;;;;;;;;;;4994090;28;20399;-90
2021/06/21 10:19:54;;;;;;;15.43;3.17;;;;;;;;;;4994095;28;20030;-89
2021/06/21 10:22:22;;;;;;;16.80;3.78;;;;;;;;;;4976329;28;20455;-88
2021/06/21 10:25:00;;;;;;;14.40;3.70;;;;;;;;;;4976480;28;20026;-90
2021/06/21 10:27:27;;;;;;;9.43;3.05;;;;;;;;;;4957246;28;20050;-91
2021/06/21 10:29:55;;;;;;;12.18;2.80;;;;;;;;;;4974623;28;20042;-90
2021/06/21 10:32:21;;;;;;;22.05;3.92;;;;;;;;;;4990733;28;20030;-89
2021/06/21 10:34:48;;;;;;;14.10;3.47;;;;;;;;;;4993029;28;20100;-88
2021/06/21 10:37:21;;;;;;;15.13;3.85;;;;;;;;;;4988699;28;20018;-90
2021/06/21 10:39:49;;;;;;;11.85;3.95;;;;;;;;;;4988376;28;20046;-89
2021/06/21 10:42:23;;;;;;;19.17;3.75;;;;;;;;;;4986349;28;20551;-90
2021/06/21 10:44:55;;;;;;;16.48;4.10;;;;;;;;;;4983869;28;20041;-89
2021/06/21 10:47:39;;;;;;;14.82;4.13;;;;;;;;;;4986931;28;20030;-89
2021/06/21 10:50:18;;;;;;;15.45;3.90;;;;;;;;;;4977270;28;20031;-88
2021/06/21 10:52:53;;;;;;;22.45;4.38;;;;;;;;;;4971494;28;20051;-90
2021/06/21 10:55:30;;;;;;;18.08;4.40;;;;;;;;;;4987558;28;20030;-88
2021/06/21 10:58:29;;;;;;;23.85;5.75;;;;;;;;;;4983423;28;20034;-87
2021/06/21 11:00:56;;;;;;;15.07;4.05;;;;;;;;;;4903348;29;20197;-89
2021/06/21 11:03:25;;;;;;;21.27;4.80;;;;;;;;;;4894004;29;20055;-88
2021/06/21 11:05:52;;;;;;;18.67;3.80;;;;;;;;;;4907899;29;20044;-92
2021/06/21 11:08:22;;;;;;;20.63;4.03;;;;;;;;;;4887671;29;20081;-88
2021/06/21 11:10:51;;;;;;;16.52;4.43;;;;;;;;;;4890825;29;20144;-90
2021/06/21 11:13:37;;;;;;;17.70;4.47;;;;;;;;;;4911663;29;20106;-93
2021/06/21 11:16:20;;;;;;;18.27;4.13;;;;;;;;;;4912997;29;20407;-92
2021/06/21 11:18:48;;;;;;;13.07;3.53;;;;;;;;;;4884040;29;20123;-93
2021/06/21 11:21:18;;;;;;;13.30;3.55;;;;;;;;;;4896124;29;20032;-93
2021/06/21 11:23:47;;;;;;;16.80;4.05;;;;;;;;;;4912573;29;20042;-93
2021/06/21 11:26:13;;;;;;;20.08;3.78;;;;;;;;;;4897074;29;20064;-92
2021/06/21 11:28:40;;;;;;;21.02;3.55;;;;;;;;;;4913747;29;20060;-92
2021/06/21 11:31:18;;;;;;;15.80;3.63;;;;;;;;;;4900176;29;20123;-92
2021/06/21 11:33:51;;;;;;;17.33;3.45;;;;;;;;;;4900645;29;20040;-91
2021/06/21 11:36:46;;;;;;;12.93;2.80;;;;;;;;;;4938310;28;20069;-89
2021/06/21 11:39:38;;;;;;;10.25;3.03;;;;;;;;;;4983265;28;20504;-88
2021/06/21 11:42:06;;;;;;;15.65;3.47;;;;;;;;;;4958639;28;20034;-88
2021/06/21 11:44:41;;;;;;;12.95;2.92;;;;;;;;;;4963214;28;20030;-88
2021/06/21 11:47:29;;;;;;;13.90;3.25;;;;;;;;;;4974728;28;20077;-89
2021/06/21 11:50:16;;;;;;;11.25;3.10;;;;;;;;;;4965565;28;20041;-89
2021/06/21 11:52:42;;;;;;;11.50;3.40;;;;;;;;;;4962725;28;20117;-88
2021/06/21 11:55:16;;;;;;;12.30;2.92;;;;;;;;;;4959398;28;20420;-88
2021/06/21 11:57:56;;;;;;;11.13;2.85;;;;;;;;;;4967751;28;20507;-90
2021/06/21 12:00:30;;;;;;;;;;;;;;;;;;4988861;28;20104;-88
2021/06/21 12:03:05;;;;;;;15.23;3.17;;;;;;;;;;4988769;28;19938;-88
2021/06/21 12:05:31;;;;;;;10.98;3.08;;;;;;;;;;4982183;28;20121;-88
2021/06/21 12:07:57;;;;;;;14.98;3.53;;;;;;;;;;4967727;28;20521;-88
2021/06/21 12:10:23;;;;;;;8.25;3.15;;;;;;;;;;4982570;28;20038;-88
2021/06/21 12:12:53;;;;;;;10.82;3.33;;;;;;;;;;4980376;28;20480;-88
2021/06/21 12:15:29;;;;;;;;;;;;;;;;;;4973958;28;20117;-89
2021/06/21 12:17:56;;;;;;;10.35;2.90;;;;;;;;;;4981026;28;19953;-88
2021/06/21 12:20:22;;;;;;;13.02;2.97;;;;;;;;;;4972718;28;20026;-88
2021/06/21 12:23:09;;;;;;;20.40;3.17;;;;;;;;;;4971543;28;20026;-87
2021/06/21 12:25:44;;;;;;;8.93;2.60;;;;;;;;;;4989499;28;20034;-88
2021/06/21 12:28:14;;;;;;;10.82;2.40;;;;;;;;;;4973459;28;20034;-87
2021/06/21 12:30:55;;;;;;;8.13;2.28;;;;;;;;;;4975657;28;20129;-87
2021/06/21 12:33:42;;;;;;;10.07;2.20;;;;;;;;;;4961557;28;20030;-88
2021/06/21 12:36:09;;;;;;;9.00;2.38;;;;;;;;;;4968190;28;20041;-88
2021/06/21 12:38:53;;;;;;;12.60;2.72;;;;;;;;;;4968728;28;20444;-87
2021/06/21 12:41:21;;;;;;;11.10;2.58;;;;;;;;;;4954265;28;20045;-88
2021/06/21 12:44:01;;;;;;;8.30;2.10;;;;;;;;;;4984144;28;20041;-88
2021/06/21 12:46:31;;;;;;;7.88;2.88;;;;;;;;;;4975554;28;20404;-88
2021/06/21 12:49:00;;;;;;;9.27;2.80;;;;;;;;;;4976781;28;20096;-87
2021/06/21 12:51:26;;;;;;;8.25;2.38;;;;;;;;;;4966629;28;20033;-88
2021/06/21 12:53:53;;;;;;;10.10;2.47;;;;;;;;;;4960982;28;20034;-88
2021/06/21 12:56:25;;;;;;;8.45;2.55;;;;;;;;;;4978719;28;20026;-88
2021/06/21 12:58:51;;;;;;;8.15;2.50;;;;;;;;;;4976064;28;20373;-89
2021/06/21 13:01:26;;;;;;;7.30;2.40;;;;;;;;;;4977673;28;20116;-88
2021/06/21 13:03:53;;;;;;;11.73;3.10;;;;;;;;;;4976916;28;20031;-88
2021/06/21 13:06:38;;;;;;;7.10;2.30;;;;;;;;;;4977676;28;20029;-87
2021/06/21 13:09:15;;;;;;;8.48;2.20;;;;;;;;;;4986787;28;20486;-88
2021/06/21 13:11:57;;;;;;;10.38;2.28;;;;;;;;;;4957651;28;20039;-88
2021/06/21 13:14:34;;;;;;;8.00;2.33;;;;;;;;;;4957744;28;20477;-88
2021/06/21 13:17:17;;;;;;;7.07;2.28;;;;;;;;;;4957919;28;20507;-87
2021/06/21 13:19:52;;;;;;;8.65;2.83;;;;;;;;;;4989571;28;20030;-87
2021/06/21 13:22:25;;;;;;;9.88;2.85;;;;;;;;;;4980375;28;20026;-87
2021/06/21 13:24:51;;;;;;;10.02;2.40;;;;;;;;;;4989073;28;20085;-87
2021/06/21 13:27:28;;;;;;;9.50;2.80;;;;;;;;;;4987747;28;20512;-87
2021/06/21 13:29:59;;;;;;;4.85;2.25;;;;;;;;;;4986556;28;20488;-87
2021/06/21 13:32:27;;;;;;;8.05;2.03;;;;;;;;;;4976241;28;20895;-87
2021/06/21 13:34:55;;;;;;;13.25;2.70;;;;;;;;;;4978000;28;20129;-87
2021/06/21 13:37:29;;;;;;;8.05;2.88;;;;;;;;;;4993620;28;20031;-87
2021/06/21 13:40:01;;;;;;;7.95;2.35;;;;;;;;;;4968412;28;20053;-88
2021/06/21 13:42:47;;;;;;;4.88;2.53;;;;;;;;;;4961603;28;20085;-87
2021/06/21 13:45:20;;;;;;;5.43;2.40;;;;;;;;;;4982230;28;20063;-86
2021/06/21 13:48:03;;;;;;;11.98;2.78;;;;;;;;;;4965198;28;20405;-87
2021/06/21 13:50:39;;;;;;;11.27;2.60;;;;;;;;;;4969041;28;20037;-87
2021/06/21 13:53:20;;;;;;;5.78;1.55;;;;;;;;;;4976331;28;20035;-88
2021/06/21 13:55:46;;;;;;;4.88;1.80;;;;;;;;;;5000134;28;20069;-88
2021/06/21 13:58:14;;;;;;;4.18;1.77;;;;;;;;;;4982568;28;20038;-86
2021/06/21 14:00:45;;;;;;;3.00;1.52;;;;;;;;;;4988070;28;20034;-87
2021/06/21 14:03:28;;;;;;;4.00;1.40;;;;;;;;;;4963669;28;20022;-88
2021/06/21 14:06:04;;;;;;;5.30;1.48;;;;;;;;;;4960187;28;20037;-87
2021/06/21 14:08:32;;;;;;;7.13;1.58;;;;;;;;;;4974855;28;20050;-88
2021/06/21 14:11:04;;;;;;;4.18;1.35;;;;;;;;;;4986728;28;20046;-89
2021/06/21 14:13:29;;;;;;;3.65;1.45;;;;;;;;;;4976707;28;20029;-88
2021/06/21 14:15:55;;;;;;;5.38;1.30;;;;;;;;;;4977564;28;20405;-87
2021/06/21 14:18:21;;;;;;;5.30;1.10;;;;;;;;;;4973390;28;20019;-87
2021/06/21 14:20:46;;;;;;;4.43;1.10;;;;;;;;;;4968313;28;20571;-87
2021/06/21 14:23:13;;;;;;;3.78;1.02;;;;;;;;;;4966110;28;20034;-88
2021/06/21 14:25:40;;;;;;;2.38;1.38;;;;;;;;;;4962878;28;20122;-87
2021/06/21 14:28:07;;;;;;;7.38;1.30;;;;;;;;;;4973920;28;20038;-86
2021/06/21 14:30:35;;;;;;;4.22;1.45;;;;;;;;;;4984301;28;20073;-88
2021/06/21 14:33:00;;;;;;;5.03;1.52;;;;;;;;;;4982176;28;20034;-87
2021/06/21 14:35:26;;;;;;;3.90;1.70;;;;;;;;;;4976381;28;20096;-87
2021/06/21 14:37:52;;;;;;;4.28;1.30;;;;;;;;;;4983153;28;20026;-88
2021/06/21 14:40:20;;;;;;;5.82;1.40;;;;;;;;;;4982043;28;20255;-87
2021/06/21 14:42:49;;;;;;;2.35;1.20;;;;;;;;;;4982652;28;20026;-87
2021/06/21 14:45:15;;;;;;;4.65;1.52;;;;;;;;;;4975083;28;20057;-88
2021/06/21 14:47:44;;;;;;;5.22;1.58;;;;;;;;;;4981071;28;20047;-86
2021/06/21 14:52:38;;;;;;;3.22;1.40;;;;;;;;;;4977235;28;20023;-87
2021/06/21 14:55:05;;;;;;;4.65;1.33;;;;;;;;;;4959235;28;20034;-88
2021/06/21 14:57:31;;;;;;;4.53;1.52;;;;;;;;;;4967498;28;20037;-88
2021/06/21 15:00:00;;;;;;;3.78;1.15;;;;;;;;;;4977945;28;20031;-87
2021/06/21 15:02:26;;;;;;;5.00;1.27;;;;;;;;;;4993069;28;20030;-88
2021/06/21 15:04:51;;;;;;;3.00;1.23;;;;;;;;;;4974418;28;20071;-88
2021/06/21 15:07:17;;;;;;;7.25;1.48;;;;;;;;;;4958056;28;20031;-87
2021/06/21 15:09:42;;;;;;;5.45;1.55;;;;;;;;;;4975597;28;20154;-86
2021/06/21 15:12:09;;;;;;;2.63;1.35;;;;;;;;;;4956771;28;20027;-87
2021/06/21 15:14:34;;;;;;;5.50;1.42;;;;;;;;;;4978091;28;20030;-86
2021/06/21 15:17:00;;;;;;;8.18;1.70;;;;;;;;;;4964584;28;20061;-87
2021/06/21 15:19:26;;;;;;;3.55;1.10;;;;;;;;;;4972665;28;20416;-87
2021/06/21 15:21:54;;;;;;;5.28;1.55;;;;;;;;;;4970405;28;20077;-86
2021/06/21 15:24:20;;;;;;;2.85;1.40;;;;;;;;;;4986618;28;20287;-85
2021/06/21 15:26:47;;;;;;;5.20;1.50;;;;;;;;;;4984197;28;20034;-86
2021/06/21 15:29:13;;;;;;;8.68;1.60;;;;;;;;;;4989824;28;20030;-86
2021/06/21 15:31:39;;;;;;;4.30;1.60;;;;;;;;;;4965507;28;20117;-87
2021/06/21 15:34:05;;;;;;;5.68;1.38;;;;;;;;;;4982282;28;20114;-87
2021/06/21 15:36:31;;;;;;;7.18;1.90;;;;;;;;;;4973304;28;20412;-86
2021/06/21 21:19:10;;;;;;;5.82;3.50;;;;;;;;;;6198861;22;20095;-86
2021/06/21 21:27:04;;;;;;;6.32;3.85;;;;;;;;;;6191211;22;20029;-89
2021/06/21 21:29:30;;;;;;;7.35;3.50;;;;;;;;;;6160652;23;20001;-90
2021/06/21 21:35:18;;;;;;;11.05;4.20;;;;;;;;;;6191772;23;20040;-87
2021/06/21 21:37:44;;;;;;;9.10;4.05;;;;;;;;;;6160119;23;20428;-88
2021/06/21 21:40:12;;;;;;;10.27;4.63;;;;;;;;;;6160154;23;20376;-91
2021/06/21 21:42:38;;;;;;;12.38;4.00;;;;;;;;;;6160689;23;20055;-88
2021/06/21 21:45:05;;;;;;;10.90;4.40;;;;;;;;;;6160585;23;19997;-88
2021/06/21 21:50:53;;;;;;;8.02;3.90;;;;;;;;;;6191395;22;20451;-87
2021/06/21 21:53:19;;;;;;;7.93;4.30;;;;;;;;;;6187902;23;20040;-89
2021/06/21 21:55:45;;;;;;;11.82;5.00;;;;;;;;;;6160432;23;20005;-88
2021/06/21 21:58:10;;;;;;;11.65;3.80;;;;;;;;;;6160710;23;20008;-87
